AirNav   Air Wisconsin Up To $57,000 Bonus
 
 703 users online  

16MI Barnstormers 5 Airport
Gaines, Michigan, USA

GOING TO GAINES?


FAA INFORMATION EFFECTIVE 07 OCTOBER 2021

Location

FAA Identifier: 16MI
Lat/Long: 42-53-21.0000N 083-51-59.8470W
42-53.350000N 083-51.997450W
42.8891667,-83.8666242
(estimated)
Elevation: 823 ft. / 251 m (estimated)
Variation: 05W (1985)
From city: 3 miles NE of GAINES, MI
Time zone: UTC -4 (UTC -5 during Standard Time)
Zip code: 48436

Airport Operations

Airport use: Private use. Permission required prior to landing
Activation date: 02/1987
Control tower: no
ARTCC: CLEVELAND CENTER
FSS: LANSING FLIGHT SERVICE STATION
Attendance: CONTINUOUS
Wind indicator: yes
Segmented circle: no

Airport Communications

WX ASOS at FNT (7 nm NE): PHONE 810-342-7804
WX AWOS-3 at RNP (13 nm NW): 118.025 (989-729-2967)
WX AWOS-3 at OZW (16 nm S): 118.875 (517-546-4450)

Nearby radio navigation aids

VOR radial/distance  VOR name  Freq  Var
FNTr234/7.0FLINT VORTAC116.9006W
SVMr340/31.2SALEM VORTAC114.3003W
MBSr170/39.6SAGINAW VOR/DME112.9003W

Airport Services

Runway Information

Runway 9/27

Dimensions: 1300 x 60 ft. / 396 x 18 m
Surface: turf
RUNWAY 9  RUNWAY 27
Traffic pattern: leftright
Displaced threshold: 300 ft.400 ft.
Obstructions: road30 ft. trees

Airport Ownership and Management from official FAA records

Ownership: Privately-owned
Owner: JAMES F BRICHAN
9307 VAN VLEET RD
GAINES, MI 48436-9710
Phone 810-513-3447
Manager: JAMES F BRICHAN
9307 VAN VLEET RD
GAINES, MI 48436-9710
Phone 810-513-3447

Airport Operational Statistics

Aircraft based on the field: 1
Single engine airplanes: 1
    

Additional Remarks

NO SNOW REMOVAL.
RY MOWED REGULARLY.
TIE DOWNS AVBL.
FOR CD CTC GREAT LAKES APCH AT 269-459-3345, WHEN APCH CLSD CTC CLEVELAND ARTCC AT 440-774-0224/0490.

Instrument Procedures

There are no published instrument procedures at 16MI.

Some nearby airports with instrument procedures:

9G2 - Price's Airport (7 nm SE)
KFNT - Bishop International Airport (7 nm NE)
KRNP - Owosso Community Airport (13 nm NW)
KOZW - Livingston County Spencer J Hardy Airport (16 nm S)
KPTK - Oakland County International Airport (24 nm SE)
 
Loc | Ops | Rwys | IFR | FBO | Links
Com | Nav | Svcs | Stats | Notes
Area around 16MI (Barnstormers 5 Airport)
 
Road maps at: MapQuest Bing Google
 
Aerial photo
No photo
 
Sectional chart

 
Airport distance calculator
Flying to Barnstormers 5 Airport? Find the distance to fly.

From to 16MI

Sunrise and sunset
Times for 28-Oct-2021
 Local
(UTC-4)
 Zulu
(UTC)
Morning civil twilight07:3711:37
Sunrise08:0612:06
Sunset18:3322:33
Evening civil twilight19:0223:02

Current date and time
Zulu (UTC)  28-Oct-2021 04:41:25
Local (UTC-4)  28-Oct-2021 00:41:25
 
METAR
KFNT 
7nm NE 
280353Z 07007KT 10SM FEW008 OVC018 12/09 A2996 RMK AO2 SLP146 T01170094
KRNP 
13nm NW 
280415Z AUTO 07006KT 5SM BR BKN003 OVC019 10/09 A2992 RMK AO2 T00960093
KOZW 
17nm S 
280415Z AUTO 08007KT 2 1/2SM BR OVC003 10/10 A2991 RMK AO2 T00990097
TAF
KFNT 
7nm NE 
271720Z 2718/2818 02005KT P6SM OVC008 FM280000 06005KT P6SM OVC008 FM280600 07007KT P6SM OVC012 FM281200 08009KT P6SM SCT015 BKN200
NOTAMs
Click for the latest NOTAMs
NOTAMs are issued by the DoD/FAA and will open in a separate window not controlled by AirNav.

 

 
 

Would you like to see your business listed on this page?

 If your business provides an interesting product or service to pilots, flight crews, aircraft, or users of the Barnstormers 5 Airport, you should consider listing it here.  To start the listing process, click on the button below
 
Add a business
 

Other Pages about Barnstormers 5 Airport

Update a link
 
Copyright © AirNav, LLC. All rights reserved. Privacy Policy  Contact